Time;durP1;ratioP1;P1;durP2;ratioP2;P2;SDS_P1;SDS_P2;PMS_P1;PMS_P2;Temp;Humidity;BMP_temperature;BMP_pressure;BME280_temperature;BME280_humidity;BME280_pressure;Samples;Min_cycle;Max_cycle;Signal;HPM_P1;HPM_P2
2023/05/13 00:01:21;;;;;;;10.52;7.50;;;;;;;15.98;100.00;102243.63;5004470;28;20022;-60
2023/05/13 00:03:46;;;;;;;15.13;7.30;;;;;;;16.08;100.00;102242.41;4987781;28;20054;-59
2023/05/13 00:06:12;;;;;;;12.27;6.82;;;;;;;16.04;100.00;102248.72;4989969;28;20033;-59
2023/05/13 00:08:37;;;;;;;11.15;7.15;;;;;;;16.00;100.00;102247.09;4988532;28;20038;-60
2023/05/13 00:11:02;;;;;;;14.38;6.53;;;;;;;15.89;100.00;102245.63;4988430;28;20029;-59
2023/05/13 00:13:28;;;;;;;10.45;6.30;;;;;;;15.93;100.00;102249.06;4988288;28;20365;-60
2023/05/13 00:15:53;;;;;;;9.50;6.25;;;;;;;15.88;100.00;102246.56;4988052;28;20033;-58
2023/05/13 00:18:18;;;;;;;7.05;5.95;;;;;;;15.89;100.00;102250.06;4989191;28;20025;-59
2023/05/13 00:20:44;;;;;;;10.55;5.97;;;;;;;15.90;100.00;102242.03;4987708;28;20022;-58
2023/05/13 00:23:10;;;;;;;7.72;6.25;;;;;;;15.93;100.00;102243.75;4988993;28;20043;-59
2023/05/13 00:25:36;;;;;;;7.50;5.88;;;;;;;15.93;100.00;102243.75;4987398;28;20097;-60
2023/05/13 00:28:01;;;;;;;7.45;5.60;;;;;;;15.92;100.00;102245.53;4986364;28;20496;-60
2023/05/13 00:30:26;;;;;;;6.35;5.50;;;;;;;15.90;100.00;102242.03;4988405;28;20034;-58
2023/05/13 00:32:51;;;;;;;8.25;5.00;;;;;;;15.89;100.00;102247.41;4987863;28;20077;-57
2023/05/13 00:35:17;;;;;;;12.68;5.47;;;;;;;15.84;100.00;102242.28;4987682;28;20034;-60
2023/05/13 00:37:42;;;;;;;5.35;4.65;;;;;;;15.83;100.00;102245.00;4987768;28;20018;-62
2023/05/13 00:40:18;;;;;;;8.23;4.45;;;;;;;15.84;100.00;102242.28;4988055;28;20022;-60
2023/05/13 00:42:43;;;;;;;7.72;5.50;;;;;;;15.85;100.00;102235.16;4987644;28;20087;-58
2023/05/13 00:45:09;;;;;;;7.35;5.30;;;;;;;15.87;100.00;102244.81;4987533;28;20101;-59
2023/05/13 00:47:34;;;;;;;10.73;4.90;;;;;;;15.82;100.00;102246.78;4988463;28;20114;-59
2023/05/13 00:49:59;;;;;;;8.75;5.05;;;;;;;15.76;100.00;102246.97;4987404;28;20105;-59
2023/05/13 00:52:25;;;;;;;9.55;5.00;;;;;;;15.72;100.00;102255.97;4987611;28;20038;-59
2023/05/13 00:54:50;;;;;;;5.65;5.15;;;;;;;15.77;100.00;102246.03;4988138;28;20038;-58
2023/05/13 00:57:15;;;;;;;8.50;5.53;;;;;;;15.65;100.00;102247.31;4987183;28;20031;-59
2023/05/13 00:59:41;;;;;;;7.43;5.05;;;;;;;15.66;100.00;102241.94;4988516;28;20405;-60
2023/05/13 01:02:31;;;;;;;10.32;5.28;;;;;;;15.51;100.00;102240.66;4987229;28;20032;-59
2023/05/13 01:05:28;;;;;;;15.00;5.60;;;;;;;15.61;100.00;102241.25;4985677;28;20544;-61
2023/05/13 01:08:03;;;;;;;9.07;5.00;;;;;;;15.44;100.00;102235.63;4986799;28;20080;-59
2023/05/13 01:10:52;;;;;;;7.68;5.45;;;;;;;15.56;100.00;102240.53;4987065;28;20030;-61
2023/05/13 01:13:23;;;;;;;10.57;5.35;;;;;;;15.47;100.00;102235.53;5003753;28;20586;-61
2023/05/13 01:15:55;;;;;;;10.38;5.15;;;;;;;15.47;100.00;102235.53;4987696;28;20035;-60
2023/05/13 01:18:28;;;;;;;14.27;5.28;;;;;;;15.37;100.00;102235.81;4988464;28;20045;-60
2023/05/13 01:20:53;;;;;;;8.90;4.93;;;;;;;15.33;100.00;102236.84;4992014;28;20031;-62
2023/05/13 01:23:19;;;;;;;5.30;4.80;;;;;;;15.27;100.00;102237.88;4968365;28;20048;-61
2023/05/13 01:25:44;;;;;;;6.07;4.80;;;;;;;15.11;100.00;102229.53;4981136;28;20042;-58
2023/05/13 01:28:10;;;;;;;11.85;5.35;;;;;;;14.98;100.00;102231.69;4969218;28;20041;-60
2023/05/13 01:30:36;;;;;;;5.53;4.90;;;;;;;15.02;100.00;102228.03;4986793;28;20030;-58
2023/05/13 01:33:01;;;;;;;8.25;4.70;;;;;;;14.87;100.00;102237.31;4988428;28;20032;-60
2023/05/13 01:35:27;;;;;;;6.22;4.78;;;;;;;14.86;100.00;102234.72;4987776;28;20037;-58
2023/05/13 01:37:55;;;;;;;9.88;5.13;;;;;;;14.82;100.00;102226.00;4986798;28;20031;-60
2023/05/13 01:40:21;;;;;;;9.48;4.93;;;;;;;14.69;100.00;102236.03;4987141;28;20038;-60
2023/05/13 01:42:46;;;;;;;9.43;4.63;;;;;;;14.57;100.00;102234.59;4986786;28;20030;-60
2023/05/13 01:45:13;;;;;;;8.82;5.32;;;;;;;14.52;100.00;102239.19;4988716;28;20034;-60
2023/05/13 01:47:38;;;;;;;6.72;5.00;;;;;;;14.49;100.00;102240.16;4988027;28;20054;-60
2023/05/13 01:50:04;;;;;;;7.97;5.05;;;;;;;14.38;100.00;102239.56;4991031;28;20030;-60
2023/05/13 01:52:29;;;;;;;6.78;4.88;;;;;;;14.38;100.00;102239.56;4991035;28;20023;-60
2023/05/13 01:54:55;;;;;;;8.00;4.90;;;;;;;14.37;100.00;102238.72;4992222;28;20057;-60
2023/05/13 01:57:20;;;;;;;8.73;4.95;;;;;;;14.26;100.00;102243.41;4991224;28;20373;-60
2023/05/13 01:59:46;;;;;;;5.53;4.93;;;;;;;14.21;100.00;102235.59;4991495;28;20477;-58
2023/05/13 02:02:11;;;;;;;12.98;4.70;;;;;;;14.20;100.00;102243.56;4992370;28;20023;-59
2023/05/13 02:04:36;;;;;;;6.53;4.90;;;;;;;14.01;100.00;102244.09;4990397;28;20043;-60
2023/05/13 02:07:02;;;;;;;7.45;4.78;;;;;;;14.08;100.00;102243.00;4990507;28;20062;-60
2023/05/13 02:09:27;;;;;;;11.20;4.75;;;;;;;14.09;100.00;102236.78;4990620;28;20018;-59
2023/05/13 02:11:52;;;;;;;8.55;4.78;;;;;;;14.12;100.00;102236.72;4990720;28;20105;-59
2023/05/13 02:14:18;;;;;;;6.05;4.72;;;;;;;14.13;100.00;102235.81;4990516;28;20066;-59
2023/05/13 02:16:43;;;;;;;11.95;5.35;;;;;;;14.01;100.00;102238.78;4988487;28;20034;-60
2023/05/13 02:19:08;;;;;;;6.53;4.57;;;;;;;14.02;100.00;102237.88;4991809;28;20113;-60
2023/05/13 02:21:34;;;;;;;10.90;5.72;;;;;;;13.95;100.00;102238.94;4991244;28;20034;-60
2023/05/13 02:23:59;;;;;;;9.68;6.95;;;;;;;13.90;100.00;102236.41;4991309;28;20114;-60
2023/05/13 02:26:25;;;;;;;12.30;5.60;;;;;;;13.89;100.00;102240.84;4989787;28;20448;-60
2023/05/13 02:28:50;;;;;;;9.20;5.20;;;;;;;13.85;100.00;102240.97;4991101;28;20109;-59
2023/05/13 02:31:15;;;;;;;10.68;5.88;;;;;;;13.85;100.00;102238.31;4990338;28;20081;-59
2023/05/13 02:33:41;;;;;;;7.40;5.50;;;;;;;13.84;100.00;102242.72;4991874;28;20044;-59
2023/05/13 02:36:06;;;;;;;10.73;6.30;;;;;;;13.81;100.00;102242.81;4990743;28;20027;-60
2023/05/13 02:38:32;;;;;;;12.52;5.95;;;;;;;13.81;100.00;102242.81;4992000;28;20552;-59
2023/05/13 02:40:57;;;;;;;8.45;5.90;;;;;;;13.76;100.00;102242.91;4989970;28;20362;-60
2023/05/13 02:43:23;;;;;;;7.25;5.93;;;;;;;13.76;100.00;102242.91;4990221;28;20073;-59
2023/05/13 02:45:49;;;;;;;11.98;6.30;;;;;;;13.69;100.00;102243.13;4991044;28;20165;-59
2023/05/13 02:48:14;;;;;;;9.60;6.68;;;;;;;13.67;100.00;102239.63;4991348;28;20023;-59
2023/05/13 02:50:40;;;;;;;11.45;6.40;;;;;;;13.64;100.00;102240.59;4991206;28;20029;-59
2023/05/13 02:53:05;;;;;;;7.65;6.60;;;;;;;13.62;100.00;102237.97;4989918;28;20030;-59
2023/05/13 02:55:31;;;;;;;8.88;7.13;;;;;;;13.54;100.00;102249.66;4990842;28;20147;-60
2023/05/13 02:57:56;;;;;;;11.73;6.50;;;;;;;13.55;100.00;102246.97;4990525;28;20547;-60
2023/05/13 03:00:21;;;;;;;8.93;6.78;;;;;;;13.42;100.00;102245.50;4988409;28;20026;-60
2023/05/13 03:02:47;;;;;;;11.00;7.22;;;;;;;13.43;100.00;102242.81;4991409;28;20014;-60
2023/05/13 03:05:12;;;;;;;9.98;6.95;;;;;;;13.38;100.00;102249.97;4990380;28;20033;-61
2023/05/13 03:07:38;;;;;;;12.15;7.32;;;;;;;13.32;100.00;102243.06;5005168;28;20033;-60
2023/05/13 03:10:04;;;;;;;13.57;7.43;;;;;;;13.33;100.00;102252.72;4990192;28;20496;-61
2023/05/13 03:12:29;;;;;;;8.75;7.03;;;;;;;13.22;100.00;102254.75;4989128;28;20022;-59
2023/05/13 03:14:54;;;;;;;13.35;7.65;;;;;;;13.18;100.00;102251.31;4989696;28;20504;-60
2023/05/13 03:17:20;;;;;;;18.45;7.65;;;;;;;13.11;100.00;102240.00;4989378;28;20034;-61
2023/05/13 03:19:45;;;;;;;10.05;7.35;;;;;;;13.11;100.00;102247.06;4989901;28;20030;-60
2023/05/13 03:22:10;;;;;;;10.93;7.50;;;;;;;12.99;100.00;102240.25;4989910;28;20117;-57
2023/05/13 03:24:36;;;;;;;9.85;7.47;;;;;;;12.99;100.00;102245.53;4989208;28;20030;-60
2023/05/13 03:27:01;;;;;;;13.90;7.88;;;;;;;13.01;100.00;102241.09;5004064;28;20036;-61
2023/05/13 03:29:26;;;;;;;10.45;7.55;;;;;;;12.97;100.00;102244.69;4988609;28;20034;-61
2023/05/13 03:31:52;;;;;;;13.25;8.23;;;;;;;12.91;100.00;102242.19;4988705;28;20022;-61
2023/05/13 03:34:18;;;;;;;21.50;7.47;;;;;;;12.89;100.00;102247.53;5000773;28;20037;-59
2023/05/13 03:36:43;;;;;;;11.35;7.93;;;;;;;12.88;100.00;102246.66;5008368;28;20029;-59
2023/05/13 03:39:09;;;;;;;9.15;7.50;;;;;;;12.88;100.00;102245.75;5009298;28;20072;-60
2023/05/13 03:41:34;;;;;;;10.07;6.90;;;;;;;12.83;100.00;102253.81;4988514;28;20033;-60
2023/05/13 03:44:00;;;;;;;14.57;7.78;;;;;;;12.82;100.00;102256.50;4988984;28;20065;-60
2023/05/13 03:46:28;;;;;;;9.13;6.97;;;;;;;12.77;100.00;102254.78;4988715;28;20058;-62
2023/05/13 03:48:57;;;;;;;12.77;8.20;;;;;;;12.74;100.00;102254.84;4988597;28;20085;-61
2023/05/13 03:51:22;;;;;;;12.50;8.00;;;;;;;12.70;100.00;102254.97;4988654;28;20022;-60
2023/05/13 03:53:47;;;;;;;11.43;8.38;;;;;;;12.72;100.00;102264.63;4988388;28;20081;-60
2023/05/13 03:56:13;;;;;;;16.20;8.38;;;;;;;12.74;100.00;102251.34;4986884;28;20101;-60
2023/05/13 03:58:39;;;;;;;14.18;8.30;;;;;;;12.78;100.00;102258.31;4989522;28;20093;-60
2023/05/13 04:01:05;;;;;;;11.73;8.38;;;;;;;12.79;100.00;102257.41;4987660;28;20019;-60
2023/05/13 04:03:31;;;;;;;15.43;8.15;;;;;;;12.79;100.00;102261.84;4989064;28;20061;-60
2023/05/13 04:05:57;;;;;;;14.32;9.30;;;;;;;12.66;100.00;102267.38;4994747;28;20037;-60
2023/05/13 04:08:22;;;;;;;15.93;9.23;;;;;;;12.64;100.00;102272.69;5008184;28;20041;-59
2023/05/13 04:10:47;;;;;;;13.38;8.73;;;;;;;12.67;100.00;102269.09;5000728;28;20030;-60
2023/05/13 04:13:13;;;;;;;16.27;9.57;;;;;;;12.73;100.00;102276.03;4986799;28;20027;-60
2023/05/13 04:15:39;;;;;;;18.00;9.00;;;;;;;12.71;100.00;102269.94;4975901;28;20124;-60
2023/05/13 04:18:05;;;;;;;14.93;9.70;;;;;;;12.69;100.00;102277.00;4986737;28;20416;-58
2023/05/13 04:20:30;;;;;;;17.55;10.77;;;;;;;12.64;100.00;102269.16;4987608;28;20022;-60
2023/05/13 04:22:56;;;;;;;14.63;10.90;;;;;;;12.62;100.00;102265.69;4988393;28;20381;-61
2023/05/13 04:25:21;;;;;;;15.15;10.55;;;;;;;12.60;100.00;102270.13;4987009;28;20481;-59
2023/05/13 04:27:46;;;;;;;16.42;10.63;;;;;;;12.66;100.00;102271.78;4987032;28;20436;-59
2023/05/13 04:30:12;;;;;;;15.52;12.00;;;;;;;12.56;100.00;102271.09;4988092;28;20034;-60
2023/05/13 04:32:38;;;;;;;19.50;12.07;;;;;;;12.50;100.00;102277.38;4987844;28;20138;-60
2023/05/13 04:35:05;;;;;;;15.98;12.25;;;;;;;12.56;100.00;102282.56;4986918;28;20030;-60
2023/05/13 04:37:31;;;;;;;18.52;12.45;;;;;;;12.59;100.00;102277.22;4988200;28;20057;-59
2023/05/13 04:39:56;;;;;;;18.63;11.82;;;;;;;12.72;100.00;102277.84;4986064;28;20054;-60
2023/05/13 04:42:21;;;;;;;16.63;11.32;;;;;;;12.79;100.00;102275.91;4985915;28;20388;-58
2023/05/13 04:44:47;;;;;;;17.75;11.75;;;;;;;12.79;100.00;102273.28;4987575;28;20460;-59
2023/05/13 04:47:12;;;;;;;20.15;13.27;;;;;;;12.79;100.00;102278.56;4988939;28;20093;-61
2023/05/13 04:49:37;;;;;;;17.27;12.32;;;;;;;12.83;100.00;102282.91;4988861;28;20030;-59
2023/05/13 04:52:04;;;;;;;21.42;13.27;;;;;;;12.87;100.00;102276.66;4992061;28;20038;-59
2023/05/13 04:54:29;;;;;;;17.88;12.82;;;;;;;12.82;100.00;102278.50;4994307;28;20038;-59
2023/05/13 04:56:55;;;;;;;24.38;13.70;;;;;;;12.85;100.00;102273.16;4990718;28;20037;-59
2023/05/13 04:59:21;;;;;;;17.55;13.20;;;;;;;12.92;100.00;102278.34;4988970;28;20026;-59
2023/05/13 05:01:46;;;;;;;18.60;13.27;;;;;;;12.89;100.00;102280.13;4988133;28;20105;-57
2023/05/13 05:04:12;;;;;;;16.15;12.82;;;;;;;12.84;100.00;102297.00;4988472;28;20404;-61
2023/05/13 05:06:37;;;;;;;20.40;14.27;;;;;;;12.94;100.00;102289.75;4988788;28;20391;-59
2023/05/13 05:09:02;;;;;;;16.48;13.35;;;;;;;12.94;100.00;102284.47;4988284;28;20422;-59
2023/05/13 05:11:28;;;;;;;19.33;13.57;;;;;;;13.03;100.00;102289.53;4987361;28;20461;-59
2023/05/13 05:13:53;;;;;;;18.33;13.63;;;;;;;13.06;100.00;102286.84;4987309;28;20030;-60
2023/05/13 05:16:19;;;;;;;17.80;13.73;;;;;;;13.04;100.00;102293.97;4988391;28;20026;-59
2023/05/13 05:18:44;;;;;;;18.80;13.65;;;;;;;13.00;100.00;102290.50;4988491;28;20030;-59
2023/05/13 05:21:10;;;;;;;23.30;13.63;;;;;;;13.08;100.00;102289.44;4987908;28;20105;-59
2023/05/13 05:23:35;;;;;;;18.27;13.10;;;;;;;13.17;100.00;102285.75;4987022;28;20030;-59
2023/05/13 05:26:02;;;;;;;19.75;13.48;;;;;;;13.19;100.00;102287.47;4987601;28;20469;-58
2023/05/13 05:28:28;;;;;;;17.80;12.38;;;;;;;13.21;100.00;102290.06;4986895;28;20026;-58
2023/05/13 05:30:53;;;;;;;19.40;13.52;;;;;;;13.25;100.00;102292.59;4988466;28;20086;-59
2023/05/13 05:33:19;;;;;;;17.20;12.40;;;;;;;13.43;100.00;102289.59;4986507;28;20022;-57
2023/05/13 05:35:44;;;;;;;16.33;12.43;;;;;;;13.37;100.00;102291.47;4987979;28;20058;-56
2023/05/13 05:38:10;;;;;;;18.50;12.95;;;;;;;13.52;100.00;102292.06;4986653;28;20465;-58
2023/05/13 05:40:43;;;;;;;19.42;12.63;;;;;;;13.61;100.00;102299.78;4987026;28;20168;-56
2023/05/13 05:43:09;;;;;;;22.27;12.48;;;;;;;13.73;100.00;102298.63;4985336;28;20030;-57
2023/05/13 05:45:36;;;;;;;17.38;11.82;;;;;;;13.50;100.00;102293.88;4988122;28;20034;-57
2023/05/13 05:48:01;;;;;;;16.60;12.75;;;;;;;13.61;100.00;102294.47;4984813;28;20109;-58
2023/05/13 05:50:27;;;;;;;19.13;12.32;;;;;;;13.70;100.00;102303.13;4987497;28;20033;-58
2023/05/13 05:52:52;;;;;;;16.50;11.52;;;;;;;13.75;100.00;102298.59;4985544;28;20034;-58
2023/05/13 05:55:17;;;;;;;15.88;11.10;;;;;;;13.99;100.00;102298.88;4986376;28;20062;-57
2023/05/13 05:57:43;;;;;;;21.83;12.05;;;;;;;13.90;100.00;102305.28;4986366;28;20033;-55
2023/05/13 06:00:09;;;;;;;16.45;12.15;;;;;;;14.00;100.00;102306.81;4986611;28;20105;-58
2023/05/13 06:02:34;;;;;;;22.15;11.60;;;;;;;14.11;100.00;102308.31;4985855;28;20211;-59
2023/05/13 06:05:00;;;;;;;20.50;11.30;;;;;;;13.94;100.00;102304.28;4986844;28;20054;-59
2023/05/13 06:07:25;;;;;;;17.33;10.95;;;;;;;13.98;100.00;102308.63;4985509;28;20041;-59
2023/05/13 06:09:50;;;;;;;15.60;11.02;;;;;;;14.15;100.00;102308.19;4984886;28;20030;-59
2023/05/13 06:12:16;;;;;;;14.77;10.55;;;;;;;14.22;100.00;102305.41;4990940;28;20019;-59
2023/05/13 06:14:41;;;;;;;18.05;10.38;;;;;;;14.37;100.00;102310.31;4990421;28;20034;-60
2023/05/13 06:17:06;;;;;;;14.43;9.95;;;;;;;14.42;100.00;102304.00;4993402;28;20441;-60
2023/05/13 06:19:32;;;;;;;13.57;9.60;;;;;;;14.51;100.00;102309.91;4999635;28;20065;-59
2023/05/13 06:21:57;;;;;;;15.20;9.82;;;;;;;14.55;100.00;102302.75;4987367;28;20026;-60
2023/05/13 06:24:22;;;;;;;12.82;9.45;;;;;;;14.58;100.00;102294.72;4987389;28;20037;-62
2023/05/13 06:26:48;;;;;;;14.18;8.35;;;;;;;14.76;100.00;102301.31;4986571;28;20054;-60
2023/05/13 06:29:13;;;;;;;13.48;9.05;;;;;;;14.68;100.00;102297.09;5006917;28;20038;-59
2023/05/13 06:31:39;;;;;;;13.70;9.15;;;;;;;14.69;100.00;102304.16;5007296;28;20109;-59
2023/05/13 06:34:04;;;;;;;14.68;8.38;;;;;;;14.87;100.00;102302.81;5007928;28;20022;-60
2023/05/13 06:36:29;;;;;;;12.63;9.02;;;;;;;14.71;100.00;102297.91;4996572;28;20190;-59
2023/05/13 06:38:54;;;;;;;15.55;9.43;;;;;;;14.85;100.00;102305.50;4983939;28;20038;-60
2023/05/13 06:41:20;;;;;;;9.23;7.85;;;;;;;14.93;100.00;102302.59;4987208;28;20026;-57
2023/05/13 06:43:47;;;;;;;9.55;8.38;;;;;;;15.01;100.00;102305.03;4989733;28;20224;-60
2023/05/13 06:46:13;;;;;;;13.85;8.25;;;;;;;15.10;100.00;102299.47;4983213;28;20027;-62
2023/05/13 06:48:38;;;;;;;12.55;8.43;;;;;;;15.08;100.00;102301.28;4986426;28;20042;-68
2023/05/13 06:51:04;;;;;;;13.70;8.70;;;;;;;15.08;100.00;102308.41;4983438;28;20054;-57
2023/05/13 06:53:30;;;;;;;17.75;8.60;;;;;;;15.22;100.00;102308.84;4994223;28;20021;-59
2023/05/13 06:55:56;;;;;;;11.52;7.85;;;;;;;15.34;100.00;102302.31;4976465;28;20033;-60
2023/05/13 06:58:21;;;;;;;9.95;7.40;;;;;;;15.15;100.00;102302.84;4980042;28;20022;-57
2023/05/13 07:00:47;;;;;;;8.55;7.65;;;;;;;15.25;100.00;102302.56;4979023;28;20037;-58
2023/05/13 07:03:12;;;;;;;10.57;7.40;;;;;;;15.44;100.00;102307.34;4979102;28;20066;-60
2023/05/13 07:05:37;;;;;;;9.30;7.07;;;;;;;15.38;100.00;102306.59;4977078;28;20434;-59
2023/05/13 07:08:07;;;;;;;10.70;7.57;;;;;;;15.45;100.00;102303.75;4979976;28;20347;-57
2023/05/13 07:10:33;;;;;;;11.90;6.70;;;;;;;15.71;100.00;102310.03;4978919;28;20037;-56
2023/05/13 07:12:59;;;;;;;11.20;7.28;;;;;;;15.75;100.00;102303.69;4987949;28;20022;-57
2023/05/13 07:15:24;;;;;;;13.20;7.32;;;;;;;15.74;100.00;102309.94;4985138;28;20413;-58
2023/05/13 07:17:50;;;;;;;9.90;6.15;;;;;;;15.87;100.00;102300.63;4987573;28;20037;-56
2023/05/13 07:20:18;;;;;;;9.73;6.88;;;;;;;16.03;100.00;102300.16;5002898;28;20703;-59
2023/05/13 07:22:43;;;;;;;9.68;6.47;;;;;;;15.88;100.00;102294.41;4985000;28;20029;-59
2023/05/13 07:25:09;;;;;;;11.82;6.18;;;;;;;15.99;100.00;102303.84;4991857;28;20034;-58
2023/05/13 07:27:35;;;;;;;10.57;6.25;;;;;;;16.14;100.00;102305.97;4989744;28;20026;-58
2023/05/13 07:30:00;;;;;;;8.93;5.63;;;;;;;16.04;100.00;102300.09;4988400;28;20029;-57
2023/05/13 07:32:26;;;;;;;9.93;5.35;;;;;;;16.04;100.00;102299.22;4986230;28;20328;-57
2023/05/13 07:34:51;;;;;;;12.27;5.43;;;;;;;16.15;100.00;102305.06;4985364;28;20038;-57
2023/05/13 07:37:16;;;;;;;7.80;5.40;;;;;;;16.38;100.00;102308.69;4980724;28;20022;-58
2023/05/13 07:39:42;;;;;;;7.35;5.70;;;;;;;16.60;100.00;102304.41;4985417;28;20034;-61
2023/05/13 07:42:07;;;;;;;9.35;5.03;;;;;;;16.59;100.00;102306.22;4979566;28;20011;-59
2023/05/13 07:44:32;;;;;;;8.00;5.10;;;;;;;16.77;100.00;102302.00;4983683;28;20117;-57
2023/05/13 07:46:57;;;;;;;8.77;4.95;;;;;;;16.92;98.99;102303.22;4970298;28;20529;-57
2023/05/13 07:49:23;;;;;;;10.13;5.00;;;;;;;16.92;100.00;102305.88;4995844;28;20846;-58
2023/05/13 07:51:48;;;;;;;12.00;5.95;;;;;;;16.87;100.00;102302.53;4990088;28;20448;-58
2023/05/13 07:54:14;;;;;;;11.65;5.05;;;;;;;16.79;98.25;102305.47;5006338;28;20025;-58
2023/05/13 07:56:39;;;;;;;9.98;4.75;;;;;;;16.99;100.00;102298.56;5008272;28;20025;-57
2023/05/13 07:59:04;;;;;;;12.10;5.35;;;;;;;17.14;98.85;102302.47;5006852;28;20021;-58
2023/05/13 08:01:30;;;;;;;10.88;5.35;;;;;;;17.27;98.38;102301.97;4995070;28;20405;-58
2023/05/13 08:03:55;;;;;;;11.95;5.82;;;;;;;17.15;99.41;102297.97;4986943;28;20050;-57
2023/05/13 08:06:20;;;;;;;12.52;5.35;;;;;;;17.01;99.51;102301.16;4989162;28;20543;-57
2023/05/13 08:08:46;;;;;;;6.93;5.45;;;;;;;17.23;98.85;102298.56;4997103;28;20165;-62
2023/05/13 08:11:12;;;;;;;13.75;5.20;;;;;;;17.29;99.19;102305.44;4986544;28;20038;-58
2023/05/13 08:13:37;;;;;;;17.23;5.40;;;;;;;17.52;99.04;102299.19;5004977;28;20306;-56
2023/05/13 08:16:03;;;;;;;10.38;4.78;;;;;;;17.22;98.52;102302.13;5004371;28;20022;-60
2023/05/13 08:18:29;;;;;;;7.20;5.30;;;;;;;17.54;98.92;102300.00;4987962;28;20053;-60
2023/05/13 08:20:54;;;;;;;10.70;4.85;;;;;;;17.56;99.18;102305.28;4996548;28;20033;-59
2023/05/13 08:23:19;;;;;;;11.25;5.32;;;;;;;17.85;97.78;102303.19;5005790;28;20022;-58
2023/05/13 08:25:45;;;;;;;10.82;4.88;;;;;;;18.01;96.21;102311.44;5004690;28;20034;-58
2023/05/13 08:28:10;;;;;;;11.05;4.60;;;;;;;17.94;97.45;102305.50;5007205;28;20026;-59
2023/05/13 08:30:35;;;;;;;9.20;4.95;;;;;;;18.01;96.09;102306.13;5005311;28;22424;-56
2023/05/13 08:33:01;;;;;;;9.98;5.05;;;;;;;18.13;94.87;102303.88;5007883;28;20034;-59
2023/05/13 08:35:26;;;;;;;9.52;5.00;;;;;;;18.17;94.87;102311.69;5004604;28;20026;-56
2023/05/13 08:37:52;;;;;;;7.05;4.80;;;;;;;18.16;94.92;102306.41;5005769;28;20033;-58
2023/05/13 08:40:17;;;;;;;6.50;4.82;;;;;;;18.28;93.35;102307.69;5005287;28;20044;-59
2023/05/13 08:42:45;;;;;;;11.77;5.28;;;;;;;18.27;93.49;102317.50;4988345;28;20113;-61
2023/05/13 08:45:10;;;;;;;8.15;4.90;;;;;;;18.09;93.86;102304.91;4986481;28;20041;-60
2023/05/13 08:47:54;;;;;;;11.65;5.22;;;;;;;17.98;94.67;102305.38;5000250;28;20476;-58
2023/05/13 08:50:21;;;;;;;11.50;5.32;;;;;;;17.94;95.17;102308.16;4999859;28;20030;-59
2023/05/13 08:52:46;;;;;;;8.10;5.18;;;;;;;17.94;97.06;102308.16;4985249;28;20030;-59
2023/05/13 08:55:12;;;;;;;13.90;5.20;;;;;;;18.16;94.83;102309.97;4987498;28;20484;-59
2023/05/13 08:57:38;;;;;;;13.60;5.40;;;;;;;18.31;94.60;102319.09;5003273;28;20068;-60
2023/05/13 09:00:04;;;;;;;9.68;5.22;;;;;;;18.40;95.27;102319.63;5004068;28;20658;-60
2023/05/13 09:02:29;;;;;;;7.55;5.20;;;;;;;18.48;93.83;102321.97;4988354;28;20084;-57
2023/05/13 09:04:59;;;;;;;8.48;5.03;;;;;;;18.39;94.89;102317.91;4987160;28;20062;-59
2023/05/13 09:07:24;;;;;;;8.18;5.15;;;;;;;18.28;93.69;102313.91;5003048;28;20057;-57
2023/05/13 09:09:50;;;;;;;7.70;4.43;;;;;;;18.53;93.49;102318.16;4993073;28;20031;-60
2023/05/13 09:12:41;;;;;;;8.35;5.10;;;;;;;18.67;93.32;102308.66;4986123;28;20117;-59
2023/05/13 09:15:08;;;;;;;8.88;4.85;;;;;;;18.78;93.81;102310.88;4976906;28;20049;-58
2023/05/13 09:17:37;;;;;;;9.43;5.05;;;;;;;18.77;93.69;102315.31;4983374;28;20045;-57
2023/05/13 09:20:07;;;;;;;7.80;4.97;;;;;;;18.66;94.35;102318.47;5000581;28;20032;-59
2023/05/13 09:22:33;;;;;;;7.65;4.60;;;;;;;18.78;93.03;102314.38;4985897;28;20124;-60
2023/05/13 09:24:58;;;;;;;6.07;4.40;;;;;;;19.07;93.85;102311.31;4984515;28;20378;-61
2023/05/13 09:27:36;;;;;;;5.35;4.30;;;;;;;18.89;90.80;102313.91;4987509;28;20084;-60
2023/05/13 09:30:01;;;;;;;9.05;4.43;;;;;;;18.77;90.29;102314.44;4983111;28;20034;-59
2023/05/13 09:32:27;;;;;;;9.95;4.40;;;;;;;18.92;90.05;102316.44;4989070;28;20034;-59
2023/05/13 09:34:52;;;;;;;7.07;4.70;;;;;;;18.81;92.19;102316.91;5003792;28;20065;-61
2023/05/13 09:37:17;;;;;;;6.68;4.07;;;;;;;19.02;90.23;102314.19;4994882;28;20038;-58
2023/05/13 09:39:43;;;;;;;7.45;4.28;;;;;;;19.10;90.47;102316.53;4982603;28;20568;-60
2023/05/13 09:42:15;;;;;;;14.38;5.10;;;;;;;19.11;89.69;102312.06;4986251;28;20026;-59
2023/05/13 09:44:42;;;;;;;12.98;4.28;;;;;;;19.43;89.12;102302.53;4984769;28;20023;-61
2023/05/13 09:47:11;;;;;;;12.70;4.75;;;;;;;19.22;89.06;102308.88;4988915;28;20045;-60
2023/05/13 09:49:36;;;;;;;8.30;4.82;;;;;;;19.32;89.05;102304.81;4987864;28;20037;-61
2023/05/13 09:52:02;;;;;;;7.13;4.60;;;;;;;19.57;88.04;102303.66;4997018;28;20030;-60
2023/05/13 09:54:35;;;;;;;9.05;4.40;;;;;;;19.93;87.15;102302.75;4984218;28;20031;-61
2023/05/13 09:57:00;;;;;;;9.07;4.32;;;;;;;19.59;86.55;102300.91;4991789;28;20026;-62
2023/05/13 09:59:26;;;;;;;7.38;4.10;;;;;;;19.94;86.37;102306.28;5007116;28;20038;-60
2023/05/13 10:01:53;;;;;;;7.53;4.88;;;;;;;19.96;86.74;102299.06;5004364;28;20488;-60
2023/05/13 10:04:18;;;;;;;10.60;4.63;;;;;;;19.65;87.37;102301.47;5004267;28;20050;-61
2023/05/13 10:06:44;;;;;;;11.60;4.55;;;;;;;19.93;87.96;102299.22;5003890;28;20048;-60
2023/05/13 10:09:10;;;;;;;6.50;4.43;;;;;;;20.08;89.15;102301.13;4989270;28;20034;-61
2023/05/13 10:11:35;;;;;;;7.10;4.07;;;;;;;20.11;88.25;102302.81;4987228;28;20018;-61
2023/05/13 10:14:04;;;;;;;10.57;4.20;;;;;;;19.85;87.47;102294.25;4988778;28;20030;-61
2023/05/13 10:16:31;;;;;;;;;;;;;;;20.33;86.47;102301.69;4980225;28;20165;-61
2023/05/13 10:18:57;;;;;;;10.13;4.05;;;;;;;20.56;83.45;102291.56;4981721;28;19929;-62
2023/05/13 10:21:24;;;;;;;7.45;4.13;;;;;;;20.70;83.09;102294.34;4989235;28;20416;-61
2023/05/13 10:23:52;;;;;;;10.70;3.88;;;;;;;20.71;84.79;102293.41;4989369;28;20157;-60
2023/05/13 10:26:19;;;;;;;10.48;4.75;;;;;;;20.37;83.33;102297.00;4985066;28;20532;-60
2023/05/13 10:28:46;;;;;;;5.78;4.57;;;;;;;20.22;84.24;102293.34;4988300;28;20192;-60
2023/05/13 10:31:11;;;;;;;10.85;4.40;;;;;;;20.28;83.25;102295.69;4991503;28;20046;-61
2023/05/13 10:33:37;;;;;;;9.60;4.20;;;;;;;20.17;84.28;102291.75;4990722;28;20481;-61
2023/05/13 10:36:10;;;;;;;6.30;3.90;;;;;;;20.56;83.45;102289.72;4991890;28;20129;-61
2023/05/13 10:39:06;;;;;;;9.70;4.93;;;;;;;20.65;81.22;102285.69;4987384;28;20037;-60
2023/05/13 10:42:15;;;;;;;8.57;4.53;;;;;;;20.80;82.80;102277.78;4992642;28;21115;-61
2023/05/13 10:44:41;;;;;;;9.18;4.75;;;;;;;20.58;83.28;102287.84;4992377;28;20038;-59
2023/05/13 10:47:08;;;;;;;9.23;4.97;;;;;;;20.55;83.15;102285.34;4992314;28;20775;-60
2023/05/13 10:49:34;;;;;;;10.63;3.97;;;;;;;21.02;81.91;102273.94;4985211;28;20489;-60
2023/05/13 10:52:07;;;;;;;7.13;4.38;;;;;;;21.20;86.22;102270.22;4990604;28;20092;-60
2023/05/13 10:54:40;;;;;;;7.78;4.20;;;;;;;21.25;82.95;102269.97;5000254;28;20038;-61
2023/05/13 10:57:07;;;;;;;10.02;4.57;;;;;;;20.95;82.03;102268.94;4991782;28;20084;-60
2023/05/13 10:59:34;;;;;;;4.30;3.88;;;;;;;21.44;83.00;102268.91;4988570;28;20432;-60
2023/05/13 11:02:01;;;;;;;8.13;4.93;;;;;;;21.34;79.97;102266.75;4988389;28;20540;-62
2023/05/13 11:04:26;;;;;;;8.98;4.07;;;;;;;21.43;80.85;102275.25;4986333;28;20203;-61
2023/05/13 11:06:52;;;;;;;5.90;4.45;;;;;;;21.38;81.18;102266.59;4989611;28;20132;-61
2023/05/13 11:09:20;;;;;;;11.63;4.18;;;;;;;21.07;80.83;102258.50;4987851;28;20097;-60
2023/05/13 11:11:47;;;;;;;6.55;4.22;;;;;;;21.14;79.31;102267.91;4989753;28;20031;-60